»·PEaware :: SWA923 KBUR-KLAS

SWA923 :: KBUR-KLAS

FLIGHT INFORMATION

Flight Status: Arrived
Operator:
Southwest Airlines
More flights by this operator :: More flights under this callsign
Pilot: Paul A. (20189)
Aircraft: BOEING 737-700
(B737)
More flights by this aircraft type
Origin: KBUR Bob Hope-Burbank
United States
Destination: KLAS McCarran Intl
United States
More flights between these airports :: More routes between these airports
Route: +SLAPP1 MISEN KEPEC6
File this flight plan on PilotEdge
Remarks:
Altitude:
(Current/Filed)
27,000ft
Speed:
(Current/Filed)
455kts
Departed: 27-Sep-18 10:41 AM
Arrived: 27-Sep-18 11:29 AM
Distance/Time
Traveled:
194nm/0:48
Distance/Time
To Go:
Arrived

Flight Plot

Page will automatically refresh every two minutes.

Flight plan parsing failed; only flown route is shown


Map Options




Map Legend


Flown Route
Filed Route
Departure Airport
Arrival Airport
Navaid (VOR, NDB)
Fix

Horizontal Profiles

Position Reports

Time Latitude Longitude Heading Altitude Ground
Speed
27-Sep-18 10:28 34.196764 -118.352688 180 729ft 0kts
27-Sep-18 10:29 34.196764 -118.352688 180 729ft 0kts
27-Sep-18 10:30 34.196764 -118.352688 180 729ft 0kts
27-Sep-18 10:31 34.196764 -118.352688 180 729ft 0kts
27-Sep-18 10:32 34.196764 -118.352688 180 729ft 0kts
27-Sep-18 10:33 34.196764 -118.352688 180 729ft 0kts
27-Sep-18 10:34 34.197046 -118.352683 188 729ft 2kts
27-Sep-18 10:35 34.197334 -118.352507 226 729ft 0kts
27-Sep-18 10:36 34.197334 -118.352507 226 729ft 0kts
27-Sep-18 10:37 34.197334 -118.352507 226 729ft 0kts
27-Sep-18 10:38 34.197334 -118.352507 226 729ft 0kts
27-Sep-18 10:39 34.197622 -118.354950 326 729ft 10kts
27-Sep-18 10:40 34.201532 -118.356171 348 729ft 17kts
27-Sep-18 10:41 34.207247 -118.357764 347 729ft 27kts
27-Sep-18 10:42 34.211769 -118.359305 314 729ft 4kts
27-Sep-18 10:43 34.199621 -118.356983 166 755ft 151kts
27-Sep-18 10:44 34.146982 -118.378679 222 2409ft 257kts
27-Sep-18 10:45 34.111299 -118.442757 286 4066ft 245kts
27-Sep-18 10:46 34.172104 -118.473793 352 5860ft 257kts
27-Sep-18 10:47 34.245100 -118.478838 19 7620ft 285kts
27-Sep-18 10:48 34.313971 -118.426233 35 10847ft 304kts
27-Sep-18 10:49 34.393810 -118.363987 27 12620ft 370kts
27-Sep-18 10:50 34.488176 -118.308969 36 15014ft 384kts
27-Sep-18 10:51 34.571575 -118.224523 40 17783ft 397kts
27-Sep-18 10:52 34.654283 -118.132328 57 19130ft 408kts
27-Sep-18 10:53 34.687081 -118.000364 79 20427ft 414kts
27-Sep-18 10:54 34.698704 -117.858943 86 22660ft 429kts
27-Sep-18 10:55 34.706608 -117.711389 87 24636ft 443kts
27-Sep-18 10:56 34.712337 -117.559631 86 26403ft 456kts
27-Sep-18 10:57 34.740033 -117.408266 70 27135ft 460kts
27-Sep-18 10:58 34.779659 -117.260793 71 27135ft 458kts
27-Sep-18 10:59 34.818643 -117.113011 71 27145ft 458kts
27-Sep-18 11:00 34.857899 -116.965652 71 27121ft 458kts
27-Sep-18 11:01 34.896363 -116.817858 71 27093ft 458kts
27-Sep-18 11:02 34.948062 -116.676685 55 27094ft 455kts
27-Sep-18 11:03 35.019904 -116.550621 54 27105ft 452kts
27-Sep-18 11:04 35.087805 -116.429842 54 27046ft 404kts
27-Sep-18 11:05 35.163668 -116.326525 44 24531ft 403kts
27-Sep-18 11:06 35.239085 -116.232216 45 23155ft 376kts
27-Sep-18 11:07 35.310606 -116.142206 45 21555ft 361kts
27-Sep-18 11:08 35.379342 -116.055785 45 19915ft 349kts
27-Sep-18 11:09 35.446660 -115.970890 45 18110ft 343kts
27-Sep-18 11:10 35.512375 -115.887983 45 16312ft 335kts
27-Sep-18 11:11 35.576557 -115.806335 45 14511ft 328kts
27-Sep-18 11:12 35.637752 -115.728237 45 13003ft 305kts
27-Sep-18 11:13 35.700062 -115.648690 45 12500ft 320kts
27-Sep-18 11:14 35.762557 -115.580159 18 11264ft 293kts
27-Sep-18 11:15 35.841833 -115.570380 1 11061ft 281kts
27-Sep-18 11:16 35.919291 -115.566430 2 11028ft 278kts
27-Sep-18 11:17 35.985734 -115.530496 64 11013ft 280kts
27-Sep-18 11:18 36.010991 -115.439161 68 11019ft 281kts
27-Sep-18 11:19 36.029365 -115.347187 92 10566ft 271kts
27-Sep-18 11:20 36.022739 -115.258548 95 9574ft 251kts
27-Sep-18 11:21 36.016566 -115.172797 94 8576ft 249kts
27-Sep-18 11:22 36.011765 -115.102556 94 8004ft 238kts
27-Sep-18 11:23 36.006114 -115.008850 94 7586ft 231kts
27-Sep-18 11:24 36.002285 -114.945243 94 6582ft 213kts
27-Sep-18 11:25 36.011153 -114.872125 16 5121ft 189kts
27-Sep-18 11:26 36.054506 -114.902235 321 4917ft 187kts
27-Sep-18 11:27 36.072649 -114.944648 275 4879ft 172kts
27-Sep-18 11:28 36.073746 -115.012390 270 3894ft 155kts
27-Sep-18 11:29 36.073926 -115.054804 270 3149ft 143kts
27-Sep-18 11:30 36.073742 -115.112435 269 2288ft 141kts
27-Sep-18 11:31 36.073661 -115.142159 270 2123ft 35kts
27-Sep-18 11:32 36.074832 -115.145989 307 2123ft 20kts
27-Sep-18 11:33 36.079300 -115.147913 336 2123ft 11kts
27-Sep-18 11:34 36.080220 -115.147462 66 2123ft 0kts

Navigation Log

Ident Type
Flight plan parsing failed, navigation log unavailable